sensor_id;sensor_type;location;lat;lon;timestamp;pressure;altitude;pressure_sealevel;temperature;humidity
31346;BME280;21711;49.708;18.568;2023-04-02T00:00:36;96270.53;;;9.37;100.00
31346;BME280;21711;49.708;18.568;2023-04-02T00:03:23;96272.78;;;9.43;100.00
31346;BME280;21711;49.708;18.568;2023-04-02T00:05:50;96273.97;;;9.51;100.00
31346;BME280;21711;49.708;18.568;2023-04-02T00:08:26;96278.34;;;9.42;100.00
31346;BME280;21711;49.708;18.568;2023-04-02T00:10:59;96277.28;;;9.43;100.00
31346;BME280;21711;49.708;18.568;2023-04-02T00:13:36;96271.53;;;9.55;100.00
31346;BME280;21711;49.708;18.568;2023-04-02T00:16:10;96275.38;;;9.63;100.00
31346;BME280;21711;49.708;18.568;2023-04-02T00:18:49;96277.47;;;9.46;100.00
31346;BME280;21711;49.708;18.568;2023-04-02T00:23:47;96282.47;;;9.29;100.00
31346;BME280;21711;49.708;18.568;2023-04-02T00:26:37;96279.91;;;9.43;100.00
31346;BME280;21711;49.708;18.568;2023-04-02T00:29:10;96280.06;;;9.32;100.00
31346;BME280;21711;49.708;18.568;2023-04-02T00:31:42;96283.09;;;9.26;100.00
31346;BME280;21711;49.708;18.568;2023-04-02T00:36:49;96278.53;;;9.31;100.00
31346;BME280;21711;49.708;18.568;2023-04-02T00:39:27;96281.91;;;9.32;100.00
31346;BME280;21711;49.708;18.568;2023-04-02T00:41:57;96281.16;;;9.31;100.00
31346;BME280;21711;49.708;18.568;2023-04-02T00:44:38;96278.19;;;9.33;100.00
31346;BME280;21711;49.708;18.568;2023-04-02T00:47:26;96281.44;;;9.30;100.00
31346;BME280;21711;49.708;18.568;2023-04-02T00:50:29;96284.56;;;9.32;100.00
31346;BME280;21711;49.708;18.568;2023-04-02T00:52:59;96289.00;;;9.37;100.00
31346;BME280;21711;49.708;18.568;2023-04-02T00:55:35;96281.91;;;9.32;100.00
31346;BME280;21711;49.708;18.568;2023-04-02T00:58:35;96286.19;;;9.28;100.00
31346;BME280;21711;49.708;18.568;2023-04-02T01:01:17;96292.34;;;9.23;100.00
31346;BME280;21711;49.708;18.568;2023-04-02T01:03:58;96285.22;;;9.24;100.00
31346;BME280;21711;49.708;18.568;2023-04-02T01:06:37;96291.06;;;9.20;100.00
31346;BME280;21711;49.708;18.568;2023-04-02T01:09:50;96290.72;;;9.08;100.00
31346;BME280;21711;49.708;18.568;2023-04-02T01:12:38;96298.41;;;9.24;100.00
31346;BME280;21711;49.708;18.568;2023-04-02T01:15:24;96292.56;;;9.27;100.00
31346;BME280;21711;49.708;18.568;2023-04-02T01:24:10;96294.34;;;9.12;100.00
31346;BME280;21711;49.708;18.568;2023-04-02T01:27:04;96296.84;;;9.23;100.00
31346;BME280;21711;49.708;18.568;2023-04-02T01:29:53;96296.75;;;9.28;100.00
31346;BME280;21711;49.708;18.568;2023-04-02T01:32:27;96307.16;;;9.38;100.00
31346;BME280;21711;49.708;18.568;2023-04-02T01:34:56;96306.84;;;9.59;100.00
31346;BME280;21711;49.708;18.568;2023-04-02T01:37:32;96309.31;;;9.69;100.00
31346;BME280;21711;49.708;18.568;2023-04-02T01:40:44;96307.56;;;9.93;100.00
31346;BME280;21711;49.708;18.568;2023-04-02T01:43:45;96307.28;;;9.80;100.00
31346;BME280;21711;49.708;18.568;2023-04-02T01:46:33;96314.03;;;9.86;100.00
31346;BME280;21711;49.708;18.568;2023-04-02T01:49:19;96319.38;;;9.67;100.00
31346;BME280;21711;49.708;18.568;2023-04-02T01:51:54;96310.09;;;9.70;100.00
31346;BME280;21711;49.708;18.568;2023-04-02T01:54:29;96313.59;;;9.65;100.00
31346;BME280;21711;49.708;18.568;2023-04-02T01:56:56;96312.81;;;9.65;100.00
31346;BME280;21711;49.708;18.568;2023-04-02T01:59:24;96314.09;;;9.67;100.00
31346;BME280;21711;49.708;18.568;2023-04-02T02:02:11;96316.84;;;9.76;100.00
31346;BME280;21711;49.708;18.568;2023-04-02T02:04:41;96323.97;;;9.76;100.00
31346;BME280;21711;49.708;18.568;2023-04-02T02:07:18;96319.38;;;9.67;100.00
31346;BME280;21711;49.708;18.568;2023-04-02T02:09:50;96317.13;;;9.60;100.00
31346;BME280;21711;49.708;18.568;2023-04-02T02:12:18;96321.50;;;9.65;100.00
31346;BME280;21711;49.708;18.568;2023-04-02T02:14:50;96321.78;;;9.64;100.00
31346;BME280;21711;49.708;18.568;2023-04-02T02:17:30;96328.53;;;9.56;100.00
31346;BME280;21711;49.708;18.568;2023-04-02T02:20:01;96330.53;;;9.78;100.00
31346;BME280;21711;49.708;18.568;2023-04-02T02:22:39;96334.09;;;9.54;100.00
31346;BME280;21711;49.708;18.568;2023-04-02T02:25:29;96333.53;;;9.57;100.00
31346;BME280;21711;49.708;18.568;2023-04-02T02:28:28;96331.53;;;9.49;100.00
31346;BME280;21711;49.708;18.568;2023-04-02T02:31:06;96328.84;;;9.35;100.00
31346;BME280;21711;49.708;18.568;2023-04-02T02:33:51;96339.59;;;9.39;100.00
31346;BME280;21711;49.708;18.568;2023-04-02T02:36:34;96335.97;;;9.54;100.00
31346;BME280;21711;49.708;18.568;2023-04-02T02:39:28;96338.25;;;9.74;100.00
31346;BME280;21711;49.708;18.568;2023-04-02T02:42:26;96337.78;;;9.86;100.00
31346;BME280;21711;49.708;18.568;2023-04-02T02:44:56;96336.22;;;9.85;100.00
31346;BME280;21711;49.708;18.568;2023-04-02T02:47:28;96335.59;;;9.60;100.00
31346;BME280;21711;49.708;18.568;2023-04-02T02:50:02;96339.88;;;9.56;100.00
31346;BME280;21711;49.708;18.568;2023-04-02T02:52:36;96340.06;;;9.60;100.00
31346;BME280;21711;49.708;18.568;2023-04-02T02:55:18;96342.34;;;9.67;100.00
31346;BME280;21711;49.708;18.568;2023-04-02T03:00:31;96348.47;;;9.95;100.00
31346;BME280;21711;49.708;18.568;2023-04-02T03:02:59;96350.53;;;9.98;100.00
31346;BME280;21711;49.708;18.568;2023-04-02T03:05:31;96351.88;;;9.82;100.00
31346;BME280;21711;49.708;18.568;2023-04-02T03:08:29;96351.00;;;9.86;100.00
31346;BME280;21711;49.708;18.568;2023-04-02T03:13:39;96363.28;;;9.77;100.00
31346;BME280;21711;49.708;18.568;2023-04-02T03:16:37;96364.00;;;9.83;100.00
31346;BME280;21711;49.708;18.568;2023-04-02T03:22:30;96357.00;;;9.92;100.00
31346;BME280;21711;49.708;18.568;2023-04-02T03:25:38;96364.56;;;9.80;100.00
31346;BME280;21711;49.708;18.568;2023-04-02T03:28:19;96362.66;;;9.99;100.00
31346;BME280;21711;49.708;18.568;2023-04-02T03:30:56;96363.34;;;9.91;100.00
31346;BME280;21711;49.708;18.568;2023-04-02T03:33:35;96373.69;;;9.87;100.00
31346;BME280;21711;49.708;18.568;2023-04-02T03:36:29;96373.38;;;9.75;100.00
31346;BME280;21711;49.708;18.568;2023-04-02T03:39:21;96372.50;;;9.80;100.00
31346;BME280;21711;49.708;18.568;2023-04-02T03:42:06;96376.31;;;9.87;100.00
31346;BME280;21711;49.708;18.568;2023-04-02T03:53:15;96388.06;;;9.62;100.00
31346;BME280;21711;49.708;18.568;2023-04-02T03:55:43;96389.88;;;9.67;100.00
31346;BME280;21711;49.708;18.568;2023-04-02T03:58:40;96394.22;;;9.77;100.00
31346;BME280;21711;49.708;18.568;2023-04-02T04:01:38;96395.34;;;9.70;100.00
31346;BME280;21711;49.708;18.568;2023-04-02T04:04:17;96397.72;;;10.05;100.00
31346;BME280;21711;49.708;18.568;2023-04-02T04:06:49;96398.50;;;10.06;100.00
31346;BME280;21711;49.708;18.568;2023-04-02T04:09:36;96399.94;;;9.98;100.00
31346;BME280;21711;49.708;18.568;2023-04-02T04:12:30;96407.34;;;9.82;100.00
31346;BME280;21711;49.708;18.568;2023-04-02T04:20:54;96415.41;;;10.05;100.00
31346;BME280;21711;49.708;18.568;2023-04-02T04:23:35;96417.31;;;9.85;100.00
31346;BME280;21711;49.708;18.568;2023-04-02T04:30:36;96423.91;;;9.68;100.00
31346;BME280;21711;49.708;18.568;2023-04-02T04:32:47;96415.19;;;9.68;100.00
31346;BME280;21711;49.708;18.568;2023-04-02T04:35:35;96415.09;;;9.73;100.00
31346;BME280;21711;49.708;18.568;2023-04-02T04:40:49;96430.31;;;9.81;100.00
31346;BME280;21711;49.708;18.568;2023-04-02T04:43:47;96431.66;;;9.79;100.00
31346;BME280;21711;49.708;18.568;2023-04-02T04:46:22;96432.19;;;9.62;100.00
31346;BME280;21711;49.708;18.568;2023-04-02T04:49:07;96438.31;;;9.57;100.00
31346;BME280;21711;49.708;18.568;2023-04-02T04:51:55;96442.47;;;9.63;100.00
31346;BME280;21711;49.708;18.568;2023-04-02T04:54:26;96450.78;;;9.70;100.00
31346;BME280;21711;49.708;18.568;2023-04-02T04:57:01;96444.22;;;9.68;100.00
31346;BME280;21711;49.708;18.568;2023-04-02T04:59:41;96445.66;;;9.60;100.00
31346;BME280;21711;49.708;18.568;2023-04-02T05:02:28;96446.72;;;9.78;100.00
31346;BME280;21711;49.708;18.568;2023-04-02T05:04:59;96449.94;;;9.56;100.00
31346;BME280;21711;49.708;18.568;2023-04-02T05:07:33;96453.78;;;9.64;100.00
31346;BME280;21711;49.708;18.568;2023-04-02T05:10:15;96450.88;;;9.46;100.00
31346;BME280;21711;49.708;18.568;2023-04-02T05:13:00;96452.78;;;9.40;100.00
31346;BME280;21711;49.708;18.568;2023-04-02T05:21:25;96453.22;;;9.47;100.00
31346;BME280;21711;49.708;18.568;2023-04-02T05:27:49;96460.22;;;9.57;100.00
31346;BME280;21711;49.708;18.568;2023-04-02T05:33:32;96460.59;;;9.70;100.00
31346;BME280;21711;49.708;18.568;2023-04-02T05:36:09;96467.63;;;9.74;100.00
31346;BME280;21711;49.708;18.568;2023-04-02T05:38:46;96469.28;;;9.90;100.00
31346;BME280;21711;49.708;18.568;2023-04-02T05:47:13;96473.56;;;10.19;100.00
31346;BME280;21711;49.708;18.568;2023-04-02T05:52:46;96480.41;;;10.20;100.00
31346;BME280;21711;49.708;18.568;2023-04-02T05:57:50;96480.41;;;9.86;100.00
31346;BME280;21711;49.708;18.568;2023-04-02T06:06:02;96493.69;;;9.81;100.00
31346;BME280;21711;49.708;18.568;2023-04-02T06:08:40;96491.03;;;9.43;100.00
31346;BME280;21711;49.708;18.568;2023-04-02T06:11:16;96495.38;;;9.53;100.00
31346;BME280;21711;49.708;18.568;2023-04-02T06:13:45;96494.34;;;9.29;100.00
31346;BME280;21711;49.708;18.568;2023-04-02T06:16:14;96511.06;;;9.44;100.00
31346;BME280;21711;49.708;18.568;2023-04-02T06:18:42;96514.50;;;9.20;100.00
31346;BME280;21711;49.708;18.568;2023-04-02T06:21:13;96521.47;;;9.11;100.00
31346;BME280;21711;49.708;18.568;2023-04-02T06:23:57;96520.47;;;8.52;100.00
31346;BME280;21711;49.708;18.568;2023-04-02T06:26:46;96534.94;;;8.55;100.00
31346;BME280;21711;49.708;18.568;2023-04-02T06:29:33;96538.69;;;8.44;100.00
31346;BME280;21711;49.708;18.568;2023-04-02T06:32:10;96543.09;;;8.13;100.00
31346;BME280;21711;49.708;18.568;2023-04-02T06:34:41;96557.38;;;8.07;100.00
31346;BME280;21711;49.708;18.568;2023-04-02T06:37:37;96556.72;;;7.86;100.00
31346;BME280;21711;49.708;18.568;2023-04-02T06:40:40;96568.13;;;8.11;100.00
31346;BME280;21711;49.708;18.568;2023-04-02T06:43:53;96584.44;;;7.62;100.00
31346;BME280;21711;49.708;18.568;2023-04-02T06:47:12;96606.22;;;7.79;100.00
31346;BME280;21711;49.708;18.568;2023-04-02T06:50:40;96590.56;;;7.47;100.00
31346;BME280;21711;49.708;18.568;2023-04-02T06:53:25;96610.44;;;7.80;100.00
31346;BME280;21711;49.708;18.568;2023-04-02T06:59:02;96618.41;;;7.59;100.00
31346;BME280;21711;49.708;18.568;2023-04-02T07:01:37;96622.19;;;7.32;100.00
31346;BME280;21711;49.708;18.568;2023-04-02T07:04:08;96641.06;;;7.44;100.00
31346;BME280;21711;49.708;18.568;2023-04-02T07:06:40;96633.41;;;7.58;100.00
31346;BME280;21711;49.708;18.568;2023-04-02T07:09:09;96644.09;;;7.88;100.00
31346;BME280;21711;49.708;18.568;2023-04-02T07:11:39;96649.63;;;7.92;100.00
31346;BME280;21711;49.708;18.568;2023-04-02T07:14:11;96658.53;;;7.96;100.00
31346;BME280;21711;49.708;18.568;2023-04-02T07:16:42;96658.34;;;7.76;100.00
31346;BME280;21711;49.708;18.568;2023-04-02T07:19:21;96663.91;;;7.65;100.00
31346;BME280;21711;49.708;18.568;2023-04-02T07:21:53;96675.22;;;7.70;100.00
31346;BME280;21711;49.708;18.568;2023-04-02T07:24:22;96688.09;;;7.72;100.00
31346;BME280;21711;49.708;18.568;2023-04-02T07:26:49;96684.97;;;7.70;100.00
31346;BME280;21711;49.708;18.568;2023-04-02T07:29:17;96697.88;;;7.50;100.00
31346;BME280;21711;49.708;18.568;2023-04-02T07:31:45;96695.03;;;7.31;100.00
31346;BME280;21711;49.708;18.568;2023-04-02T07:34:13;96704.22;;;7.34;100.00
31346;BME280;21711;49.708;18.568;2023-04-02T07:36:40;96712.88;;;7.55;100.00
31346;BME280;21711;49.708;18.568;2023-04-02T07:39:08;96729.47;;;7.40;100.00
31346;BME280;21711;49.708;18.568;2023-04-02T07:41:58;96728.16;;;7.32;100.00
31346;BME280;21711;49.708;18.568;2023-04-02T07:44:27;96732.88;;;6.94;100.00
31346;BME280;21711;49.708;18.568;2023-04-02T07:46:55;96740.69;;;6.52;100.00
31346;BME280;21711;49.708;18.568;2023-04-02T07:49:22;96748.41;;;6.80;100.00
31346;BME280;21711;49.708;18.568;2023-04-02T07:51:51;96755.25;;;7.02;100.00
31346;BME280;21711;49.708;18.568;2023-04-02T07:54:19;96761.81;;;6.99;100.00
31346;BME280;21711;49.708;18.568;2023-04-02T07:56:47;96772.31;;;6.83;100.00
31346;BME280;21711;49.708;18.568;2023-04-02T07:59:14;96779.84;;;6.59;100.00
31346;BME280;21711;49.708;18.568;2023-04-02T08:01:42;96786.69;;;6.60;100.00
31346;BME280;21711;49.708;18.568;2023-04-02T08:04:18;96791.69;;;6.56;100.00
31346;BME280;21711;49.708;18.568;2023-04-02T08:06:48;96801.16;;;6.63;100.00
31346;BME280;21711;49.708;18.568;2023-04-02T08:09:16;96820.16;;;6.96;100.00
31346;BME280;21711;49.708;18.568;2023-04-02T08:11:44;96810.38;;;6.65;100.00
31346;BME280;21711;49.708;18.568;2023-04-02T08:14:13;96815.75;;;6.32;100.00
31346;BME280;21711;49.708;18.568;2023-04-02T08:16:48;96812.84;;;6.29;100.00
31346;BME280;21711;49.708;18.568;2023-04-02T08:19:17;96823.31;;;6.18;100.00
31346;BME280;21711;49.708;18.568;2023-04-02T08:21:46;96832.63;;;6.47;100.00
31346;BME280;21711;49.708;18.568;2023-04-02T08:24:20;96832.78;;;6.94;100.00
31346;BME280;21711;49.708;18.568;2023-04-02T08:26:49;96846.44;;;6.96;100.00
31346;BME280;21711;49.708;18.568;2023-04-02T08:29:19;96846.75;;;7.05;100.00
31346;BME280;21711;49.708;18.568;2023-04-02T08:31:46;96847.06;;;6.50;100.00
31346;BME280;21711;49.708;18.568;2023-04-02T08:34:14;96854.47;;;6.10;100.00
31346;BME280;21711;49.708;18.568;2023-04-02T08:36:43;96856.69;;;5.90;100.00
31346;BME280;21711;49.708;18.568;2023-04-02T08:39:12;96860.66;;;5.93;100.00
31346;BME280;21711;49.708;18.568;2023-04-02T08:44:34;96877.06;;;6.54;100.00
31346;BME280;21711;49.708;18.568;2023-04-02T08:47:07;96881.78;;;6.52;100.00
31346;BME280;21711;49.708;18.568;2023-04-02T08:49:42;96879.47;;;6.66;100.00
31346;BME280;21711;49.708;18.568;2023-04-02T08:52:36;96889.09;;;6.50;100.00
31346;BME280;21711;49.708;18.568;2023-04-02T08:55:37;96897.09;;;6.22;100.00
31346;BME280;21711;49.708;18.568;2023-04-02T09:00:54;96903.34;;;5.83;100.00
31346;BME280;21711;49.708;18.568;2023-04-02T09:03:27;96904.72;;;5.58;100.00
31346;BME280;21711;49.708;18.568;2023-04-02T09:05:56;96915.13;;;5.48;100.00
31346;BME280;21711;49.708;18.568;2023-04-02T09:08:26;96918.94;;;5.95;100.00
31346;BME280;21711;49.708;18.568;2023-04-02T09:13:29;96927.22;;;5.82;100.00
31346;BME280;21711;49.708;18.568;2023-04-02T09:16:10;96927.53;;;5.85;100.00
31346;BME280;21711;49.708;18.568;2023-04-02T09:18:39;96938.19;;;5.73;100.00
31346;BME280;21711;49.708;18.568;2023-04-02T09:21:36;96939.25;;;6.05;100.00
31346;BME280;21711;49.708;18.568;2023-04-02T09:24:11;96945.06;;;5.79;100.00
31346;BME280;21711;49.708;18.568;2023-04-02T09:26:39;96945.28;;;5.78;100.00
31346;BME280;21711;49.708;18.568;2023-04-02T09:31:40;96951.38;;;5.84;100.00
31346;BME280;21711;49.708;18.568;2023-04-02T09:34:33;96966.47;;;6.26;100.00
31346;BME280;21711;49.708;18.568;2023-04-02T09:37:18;96968.75;;;5.90;100.00
31346;BME280;21711;49.708;18.568;2023-04-02T09:39:47;96977.72;;;5.94;100.00
31346;BME280;21711;49.708;18.568;2023-04-02T09:42:34;96975.69;;;6.01;100.00
31346;BME280;21711;49.708;18.568;2023-04-02T09:45:22;96986.34;;;6.17;100.00
31346;BME280;21711;49.708;18.568;2023-04-02T09:47:51;96993.81;;;6.03;100.00
31346;BME280;21711;49.708;18.568;2023-04-02T09:52:49;96998.47;;;6.23;100.00
31346;BME280;21711;49.708;18.568;2023-04-02T09:55:22;97001.66;;;6.25;100.00
31346;BME280;21711;49.708;18.568;2023-04-02T09:58:15;96998.47;;;6.23;100.00
31346;BME280;21711;49.708;18.568;2023-04-02T10:00:51;96998.16;;;6.52;100.00
31346;BME280;21711;49.708;18.568;2023-04-02T10:03:27;97001.63;;;6.63;100.00
31346;BME280;21711;49.708;18.568;2023-04-02T10:06:12;97002.69;;;6.62;100.00
31346;BME280;21711;49.708;18.568;2023-04-02T10:08:42;97001.94;;;6.72;100.00
31346;BME280;21711;49.708;18.568;2023-04-02T10:11:26;97009.13;;;6.82;100.00
31346;BME280;21711;49.708;18.568;2023-04-02T10:14:19;97008.84;;;6.78;100.00
31346;BME280;21711;49.708;18.568;2023-04-02T10:16:54;97012.59;;;6.93;100.00
31346;BME280;21711;49.708;18.568;2023-04-02T10:19:39;97013.16;;;7.00;100.00
31346;BME280;21711;49.708;18.568;2023-04-02T10:22:19;97012.97;;;6.64;100.00
31346;BME280;21711;49.708;18.568;2023-04-02T10:24:48;97015.16;;;6.44;100.00
31346;BME280;21711;49.708;18.568;2023-04-02T10:27:36;97025.84;;;6.65;100.00
31346;BME280;21711;49.708;18.568;2023-04-02T10:30:49;97028.19;;;7.05;100.00
31346;BME280;21711;49.708;18.568;2023-04-02T10:33:36;97026.59;;;7.04;100.00
31346;BME280;21711;49.708;18.568;2023-04-02T10:36:27;97031.75;;;6.45;100.00
31346;BME280;21711;49.708;18.568;2023-04-02T10:45:05;97044.72;;;5.74;100.00
31346;BME280;21711;49.708;18.568;2023-04-02T10:48:00;97045.47;;;5.97;100.00
31346;BME280;21711;49.708;18.568;2023-04-02T10:51:02;97052.13;;;6.05;100.00
31346;BME280;21711;49.708;18.568;2023-04-02T10:57:23;97052.19;;;6.10;100.00
31346;BME280;21711;49.708;18.568;2023-04-02T11:03:05;97072.88;;;6.34;100.00
31346;BME280;21711;49.708;18.568;2023-04-02T11:08:25;97058.88;;;6.01;100.00
31346;BME280;21711;49.708;18.568;2023-04-02T11:11:09;97066.72;;;5.96;100.00
31346;BME280;21711;49.708;18.568;2023-04-02T11:14:14;97063.72;;;5.87;100.00
31346;BME280;21711;49.708;18.568;2023-04-02T11:16:43;97069.78;;;5.87;100.00
31346;BME280;21711;49.708;18.568;2023-04-02T11:22:22;97077.78;;;5.31;100.00
31346;BME280;21711;49.708;18.568;2023-04-02T11:24:55;97084.25;;;5.68;100.00
31346;BME280;21711;49.708;18.568;2023-04-02T11:27:30;97084.81;;;5.92;100.00
31346;BME280;21711;49.708;18.568;2023-04-02T11:30:23;97090.25;;;5.85;100.00
31346;BME280;21711;49.708;18.568;2023-04-02T11:32:51;97088.97;;;5.65;100.00
31346;BME280;21711;49.708;18.568;2023-04-02T11:40:56;97104.47;;;5.89;100.00
31346;BME280;21711;49.708;18.568;2023-04-02T11:46:50;97106.88;;;5.74;100.00
31346;BME280;21711;49.708;18.568;2023-04-02T11:48:52;97100.09;;;6.00;100.00
31346;BME280;21711;49.708;18.568;2023-04-02T11:53:50;97107.41;;;6.21;100.00
31346;BME280;21711;49.708;18.568;2023-04-02T11:56:36;97113.91;;;6.40;100.00
31346;BME280;21711;49.708;18.568;2023-04-02T12:09:30;97124.63;;;6.61;100.00
31346;BME280;21711;49.708;18.568;2023-04-02T12:12:32;97129.56;;;6.57;100.00
31346;BME280;21711;49.708;18.568;2023-04-02T12:15:01;97128.13;;;6.17;100.00
31346;BME280;21711;49.708;18.568;2023-04-02T12:17:35;97128.00;;;6.29;100.00
31346;BME280;21711;49.708;18.568;2023-04-02T12:22:45;97127.75;;;6.30;100.00
31346;BME280;21711;49.708;18.568;2023-04-02T12:25:30;97140.16;;;6.40;100.00
31346;BME280;21711;49.708;18.568;2023-04-02T12:28:16;97133.28;;;6.62;100.00
31346;BME280;21711;49.708;18.568;2023-04-02T12:30:47;97134.44;;;6.16;100.00
31346;BME280;21711;49.708;18.568;2023-04-02T12:36:00;97141.72;;;6.64;100.00
31346;BME280;21711;49.708;18.568;2023-04-02T12:38:44;97144.75;;;6.83;100.00
31346;BME280;21711;49.708;18.568;2023-04-02T12:41:27;97140.63;;;6.60;100.00
31346;BME280;21711;49.708;18.568;2023-04-02T12:44:13;97143.94;;;6.50;100.00
31346;BME280;21711;49.708;18.568;2023-04-02T12:46:45;97144.50;;;6.52;100.00
31346;BME280;21711;49.708;18.568;2023-04-02T12:49:39;97147.09;;;6.02;100.00
31346;BME280;21711;49.708;18.568;2023-04-02T12:52:12;97145.28;;;6.02;100.00
31346;BME280;21711;49.708;18.568;2023-04-02T12:55:01;97149.53;;;6.03;100.00
31346;BME280;21711;49.708;18.568;2023-04-02T12:57:32;97156.44;;;5.92;100.00
31346;BME280;21711;49.708;18.568;2023-04-02T13:03:01;97153.97;;;6.25;100.00
31346;BME280;21711;49.708;18.568;2023-04-02T13:05:53;97155.31;;;6.28;100.00
31346;BME280;21711;49.708;18.568;2023-04-02T13:08:36;97156.41;;;6.10;100.00
31346;BME280;21711;49.708;18.568;2023-04-02T13:11:05;97161.72;;;6.70;100.00
31346;BME280;21711;49.708;18.568;2023-04-02T13:13:40;97162.38;;;6.55;100.00
31346;BME280;21711;49.708;18.568;2023-04-02T13:16:33;97168.84;;;7.02;100.00
31346;BME280;21711;49.708;18.568;2023-04-02T13:19:25;97168.25;;;6.62;100.00
31346;BME280;21711;49.708;18.568;2023-04-02T13:21:55;97171.75;;;6.73;100.00
31346;BME280;21711;49.708;18.568;2023-04-02T13:24:31;97168.25;;;6.12;100.00
31346;BME280;21711;49.708;18.568;2023-04-02T13:27:01;97176.03;;;6.52;100.00
31346;BME280;21711;49.708;18.568;2023-04-02T13:29:34;97180.75;;;6.55;100.00
31346;BME280;21711;49.708;18.568;2023-04-02T13:32:11;97180.47;;;6.24;100.00
31346;BME280;21711;49.708;18.568;2023-04-02T13:34:38;97187.06;;;5.87;100.00
31346;BME280;21711;49.708;18.568;2023-04-02T13:37:08;97189.75;;;5.70;100.00
31346;BME280;21711;49.708;18.568;2023-04-02T13:39:36;97191.53;;;6.03;100.00
31346;BME280;21711;49.708;18.568;2023-04-02T13:42:05;97195.72;;;6.04;100.00
31346;BME280;21711;49.708;18.568;2023-04-02T13:44:35;97206.91;;;6.17;100.00
31346;BME280;21711;49.708;18.568;2023-04-02T13:47:05;97201.34;;;6.13;100.00
31346;BME280;21711;49.708;18.568;2023-04-02T13:49:33;97198.81;;;6.01;100.00
31346;BME280;21711;49.708;18.568;2023-04-02T13:52:01;97202.81;;;6.26;100.00
31346;BME280;21711;49.708;18.568;2023-04-02T13:54:49;97208.75;;;5.99;100.00
31346;BME280;21711;49.708;18.568;2023-04-02T13:57:17;97214.50;;;6.13;100.00
31346;BME280;21711;49.708;18.568;2023-04-02T13:59:45;97211.97;;;6.24;100.00
31346;BME280;21711;49.708;18.568;2023-04-02T14:02:17;97223.81;;;6.26;100.00
31346;BME280;21711;49.708;18.568;2023-04-02T14:04:49;97222.16;;;6.20;100.00
31346;BME280;21711;49.708;18.568;2023-04-02T14:07:36;97218.88;;;6.08;100.00
31346;BME280;21711;49.708;18.568;2023-04-02T14:16:58;97232.75;;;5.86;100.00
31346;BME280;21711;49.708;18.568;2023-04-02T14:25:41;97244.47;;;6.00;100.00
31346;BME280;21711;49.708;18.568;2023-04-02T14:34:07;97254.41;;;5.76;100.00
31346;BME280;21711;49.708;18.568;2023-04-02T14:40:17;97255.81;;;5.84;100.00
31346;BME280;21711;49.708;18.568;2023-04-02T14:45:45;97262.31;;;5.98;100.00
31346;BME280;21711;49.708;18.568;2023-04-02T14:54:47;97277.00;;;6.16;100.00
31346;BME280;21711;49.708;18.568;2023-04-02T14:57:36;97276.41;;;6.09;100.00
31346;BME280;21711;49.708;18.568;2023-04-02T15:03:23;97276.91;;;5.55;100.00
31346;BME280;21711;49.708;18.568;2023-04-02T15:06:05;97288.03;;;5.62;100.00
31346;BME280;21711;49.708;18.568;2023-04-02T15:08:51;97284.06;;;5.59;100.00
31346;BME280;21711;49.708;18.568;2023-04-02T15:11:39;97283.75;;;5.56;100.00
31346;BME280;21711;49.708;18.568;2023-04-02T15:14:32;97289.00;;;5.38;100.00
31346;BME280;21711;49.708;18.568;2023-04-02T15:17:01;97297.00;;;5.15;100.00
31346;BME280;21711;49.708;18.568;2023-04-02T15:19:29;97300.19;;;5.34;100.00
31346;BME280;21711;49.708;18.568;2023-04-02T15:25:17;97301.38;;;5.26;100.00
31346;BME280;21711;49.708;18.568;2023-04-02T15:31:04;97306.88;;;5.42;100.00
31346;BME280;21711;49.708;18.568;2023-04-02T15:33:48;97314.72;;;5.24;100.00
31346;BME280;21711;49.708;18.568;2023-04-02T15:36:40;97315.53;;;5.42;100.00
31346;BME280;21711;49.708;18.568;2023-04-02T15:42:51;97325.19;;;5.07;100.00
31346;BME280;21711;49.708;18.568;2023-04-02T15:45:28;97331.34;;;5.30;100.00
31346;BME280;21711;49.708;18.568;2023-04-02T15:51:03;97338.09;;;5.43;100.00
31346;BME280;21711;49.708;18.568;2023-04-02T15:53:45;97338.91;;;5.44;100.00
31346;BME280;21711;49.708;18.568;2023-04-02T15:59:29;97353.63;;;5.16;100.00
31346;BME280;21711;49.708;18.568;2023-04-02T16:10:53;97362.44;;;5.09;100.00
31346;BME280;21711;49.708;18.568;2023-04-02T16:13:34;97366.88;;;5.09;100.00
31346;BME280;21711;49.708;18.568;2023-04-02T16:19:07;97368.56;;;5.15;100.00
31346;BME280;21711;49.708;18.568;2023-04-02T16:21:53;97379.50;;;5.24;100.00
31346;BME280;21711;49.708;18.568;2023-04-02T16:24:24;97383.25;;;4.99;100.00
31346;BME280;21711;49.708;18.568;2023-04-02T16:38:56;97395.41;;;5.05;100.00
31346;BME280;21711;49.708;18.568;2023-04-02T16:44:53;97402.44;;;4.64;100.00
31346;BME280;21711;49.708;18.568;2023-04-02T16:50:13;97407.09;;;4.85;100.00
31346;BME280;21711;49.708;18.568;2023-04-02T16:53:09;97411.06;;;4.88;100.00
31346;BME280;21711;49.708;18.568;2023-04-02T17:05:30;97427.50;;;5.12;100.00
31346;BME280;21711;49.708;18.568;2023-04-02T17:11:01;97428.78;;;5.10;100.00
31346;BME280;21711;49.708;18.568;2023-04-02T17:14:22;97438.44;;;5.21;100.00
31346;BME280;21711;49.708;18.568;2023-04-02T17:16:55;97431.94;;;4.83;100.00
31346;BME280;21711;49.708;18.568;2023-04-02T17:19:26;97435.19;;;4.90;100.00
31346;BME280;21711;49.708;18.568;2023-04-02T17:22:03;97441.03;;;4.92;100.00
31346;BME280;21711;49.708;18.568;2023-04-02T17:25:04;97442.03;;;4.91;100.00
31346;BME280;21711;49.708;18.568;2023-04-02T17:27:42;97442.28;;;4.90;100.00
31346;BME280;21711;49.708;18.568;2023-04-02T17:30:18;97445.03;;;4.71;100.00
31346;BME280;21711;49.708;18.568;2023-04-02T17:32:46;97442.19;;;4.60;100.00
31346;BME280;21711;49.708;18.568;2023-04-02T17:35:38;97441.19;;;4.62;100.00
31346;BME280;21711;49.708;18.568;2023-04-02T17:41:55;97451.38;;;4.87;100.00